This is the latest recevied weather packets stored in our database for station/object SA7NOA-14. If no packets are shown the sender has not sent any weather packets the latest 10 day(s).
| Time | Temp. | Humidity | Pressure | Rain* | Wind** | Luminosity | Snow |
|---|---|---|---|---|---|---|---|
| 1788295505 | 13.89° C | 86% | 1012.2 hPa | 1.02 mm | - | - | - |
| 1788293703 | 14.44° C | 82% | 1012.1 hPa | 1.02 mm | - | - | - |
| 1788292801 | 14.44° C | 82% | 1012.1 hPa | 1.02 mm | - | - | - |
| 1788287401 | 16.67° C | 76% | 1011.4 hPa | 1.02 mm | - | - | - |
| 1788283803 | 20° C | 70% | 1011 hPa | 1.02 mm | - | - | - |
| 1788282902 | 20° C | 70% | 1011 hPa | 1.02 mm | - | - | - |
| 1788280204 | 19.44° C | 66% | 1010.6 hPa | 1.02 mm | - | - | - |
| 1788279302 | 20° C | 66% | 1010.6 hPa | 1.02 mm | - | - | - |
| 1788278402 | 22.22° C | 66% | 1010.6 hPa | 1.02 mm | - | - | - |
| 1788277501 | 23.89° C | 66% | 1010.6 hPa | 1.02 mm | - | - | - |
| 1788276604 | 23.33° C | 66% | 1010.2 hPa | 1.02 mm | - | - | - |
| 1788273005 | 25° C | 70% | 1010.4 hPa | 1.02 mm | - | - | - |
| 1788272104 | 26.11° C | 70% | 1010.4 hPa | 1.02 mm | - | - | - |
| 1788271203 | 25° C | 70% | 1010.4 hPa | 1.02 mm | - | - | - |
| 1788269401 | 22.22° C | 66% | 1010.1 hPa | 1.02 mm | - | - | - |
| 1788268505 | 23.33° C | 66% | 1010.1 hPa | 1.02 mm | - | - | - |
| 1788267604 | 24.44° C | 66% | 1010.1 hPa | 1.02 mm | - | - | - |
| 1788266704 | 22.78° C | 66% | 1010.1 hPa | 1.02 mm | - | - | - |
| 1788265802 | 21.67° C | 72% | 1009.8 hPa | 1.02 mm | - | - | - |
| 1788264902 | 20.56° C | 72% | 1009.8 hPa | 1.02 mm | - | - | - |
| 1788264001 | 20.56° C | 72% | 1009.8 hPa | 1.02 mm | - | - | - |
| 1788263105 | 20° C | 72% | 1009.8 hPa | 1.02 mm | - | - | - |
| 1788262204 | 18.89° C | 86% | 1010 hPa | 1.02 mm | - | - | - |
| 1788261303 | 17.78° C | 86% | 1010 hPa | 1.02 mm | - | - | - |
| 1788260402 | 18.33° C | 86% | 1010 hPa | 0.51 mm | - | - | - |
* Rain latest 24 hours (hover to see other rain measurements)
** Current wind speed in m/s (hover to see current wind gust speed)